createdAt,value
2022-08-20T00:05:03.025Z,75.53
2022-08-20T00:10:27.764Z,76.77
2022-08-20T00:15:50.924Z,77.73
2022-08-20T00:21:18.772Z,78.19
2022-08-20T00:26:52.584Z,78.83
2022-08-20T00:32:15.324Z,79.89
2022-08-20T00:37:37.862Z,80.07
2022-08-20T00:43:03.326Z,80.03
2022-08-20T00:48:29.584Z,80.74
2022-08-20T00:53:51.890Z,80.76
2022-08-20T00:59:18.614Z,81.47
2022-08-20T01:04:41.624Z,81.57
2022-08-20T01:10:20.214Z,81.96
2022-08-20T01:15:46.546Z,82.03
2022-08-20T01:21:09.474Z,82.50
2022-08-20T01:26:42.184Z,83.82
2022-08-20T01:32:06.294Z,84.23
2022-08-20T01:37:31.377Z,84.43
2022-08-20T01:42:59.264Z,86.18
2022-08-20T01:48:25.264Z,86.10
2022-08-20T01:53:53.605Z,87.07
2022-08-20T01:59:15.614Z,87.34
2022-08-20T02:04:38.024Z,88.66
2022-08-20T02:10:01.094Z,89.94
2022-08-20T02:15:34.464Z,90.39
2022-08-20T02:20:57.254Z,90.55
2022-08-20T02:26:19.764Z,90.53
2022-08-20T02:32:24.255Z,91.34
2022-08-20T02:37:26.435Z,91.83
2022-08-20T02:42:48.494Z,92.16
2022-08-20T02:48:21.616Z,92.60
2022-08-20T02:53:43.484Z,92.98
2022-08-20T02:59:05.695Z,93.95
2022-08-20T03:04:27.363Z,93.43
2022-08-20T03:09:49.324Z,93.76
2022-08-20T03:15:17.170Z,93.73
2022-08-20T03:20:43.094Z,93.45
2022-08-20T03:26:11.677Z,94.27
2022-08-20T03:31:34.165Z,93.36
2022-08-20T03:36:55.956Z,93.23
2022-08-20T03:42:17.705Z,93.53
2022-08-20T03:47:41.304Z,92.84
2022-08-20T03:53:03.026Z,93.89
2022-08-20T03:58:32.797Z,94.20
2022-08-20T04:03:59.094Z,93.15
2022-08-20T04:09:20.687Z,91.73
2022-08-20T04:14:42.856Z,90.67
2022-08-20T04:20:07.075Z,90.82
2022-08-20T04:25:30.214Z,90.26
2022-08-20T04:31:01.885Z,89.68
2022-08-20T04:36:23.685Z,87.47
2022-08-20T04:41:45.936Z,85.36
2022-08-20T04:47:08.555Z,83.87
2022-08-20T04:52:33.284Z,80.23
2022-08-20T04:57:56.818Z,78.34
2022-08-20T05:03:20.929Z,77.09
2022-08-20T05:08:42.779Z,75.39
2022-08-20T05:14:07.851Z,73.25
2022-08-20T05:19:30.425Z,70.72
2022-08-20T05:24:52.265Z,65.40
2022-08-20T05:30:14.805Z,65.13
2022-08-20T05:35:39.322Z,64.21
2022-08-20T05:41:02.134Z,64.23
2022-08-20T05:46:24.837Z,62.53
2022-08-20T05:51:47.866Z,60.34
2022-08-20T05:57:09.375Z,61.24
2022-08-20T06:02:49.978Z,60.72
2022-08-20T06:08:13.355Z,57.83
2022-08-20T06:13:35.544Z,58.16
2022-08-20T06:18:58.224Z,57.90
2022-08-20T06:24:20.875Z,57.84
2022-08-20T06:29:42.810Z,54.30
2022-08-20T06:35:08.515Z,53.84
2022-08-20T06:40:30.524Z,51.69
2022-08-20T06:45:53.422Z,51.26
2022-08-20T06:51:15.523Z,50.13
2022-08-20T06:56:37.357Z,48.78
2022-08-20T07:01:59.877Z,47.30
2022-08-20T07:07:27.455Z,47.67
2022-08-20T07:13:16.868Z,46.44
2022-08-20T07:18:38.875Z,46.57
2022-08-20T07:24:00.925Z,45.97
2022-08-20T07:29:22.803Z,44.70
2022-08-20T07:34:45.276Z,43.56
2022-08-20T07:40:26.033Z,43.09
2022-08-20T07:45:49.914Z,44.71
2022-08-20T07:51:17.596Z,44.00
2022-08-20T07:56:39.477Z,43.88
2022-08-20T08:02:01.676Z,43.33
2022-08-20T08:07:24.225Z,42.99
2022-08-20T08:12:50.935Z,42.97
2022-08-20T08:18:17.400Z,41.39
2022-08-20T08:23:45.024Z,42.33
2022-08-20T08:29:09.756Z,41.09
2022-08-20T08:34:34.227Z,40.45
2022-08-20T08:39:57.751Z,41.06
2022-08-20T08:45:20.955Z,40.09
2022-08-20T08:50:53.122Z,40.38
2022-08-20T08:56:16.614Z,40.14
2022-08-20T09:01:54.118Z,41.25
2022-08-20T09:07:19.105Z,41.30
2022-08-20T09:12:49.719Z,40.78
2022-08-20T09:18:14.127Z,41.01
2022-08-20T09:23:42.755Z,40.24
2022-08-20T09:29:04.526Z,41.22
2022-08-20T09:34:29.036Z,41.54
2022-08-20T09:39:51.494Z,41.20
2022-08-20T09:45:14.497Z,40.03
2022-08-20T09:50:46.841Z,40.54
2022-08-20T09:56:09.790Z,40.77
2022-08-20T10:01:32.388Z,40.60
2022-08-20T10:06:54.357Z,40.89
2022-08-20T10:12:16.537Z,40.27
2022-08-20T10:17:42.034Z,40.68
2022-08-20T10:23:04.910Z,40.17
2022-08-20T10:28:27.234Z,40.10
2022-08-20T10:33:49.116Z,40.02
2022-08-20T10:39:10.851Z,38.63
2022-08-20T10:44:33.177Z,38.26
2022-08-20T10:50:00.330Z,37.05
2022-08-20T10:55:22.566Z,38.38
2022-08-20T11:00:46.257Z,37.50
2022-08-20T11:06:08.588Z,38.33
2022-08-20T11:11:31.027Z,38.83
2022-08-20T11:16:53.116Z,38.36
2022-08-20T11:22:19.539Z,38.60
2022-08-20T11:27:45.594Z,39.39
2022-08-20T11:33:08.251Z,39.74
2022-08-20T11:38:32.110Z,39.10
2022-08-20T11:44:17.511Z,38.72
2022-08-20T11:49:37.802Z,36.79
2022-08-20T11:55:03.211Z,37.09
2022-08-20T12:00:31.806Z,36.48
2022-08-20T12:05:58.294Z,36.18
2022-08-20T12:11:20.066Z,35.99
2022-08-20T12:16:41.934Z,36.59
2022-08-20T12:22:24.809Z,36.59
2022-08-20T12:27:47.084Z,36.38
2022-08-20T12:33:09.125Z,36.59
2022-08-20T12:38:31.091Z,35.23
2022-08-20T12:43:52.955Z,36.92
2022-08-20T12:49:14.978Z,37.06
2022-08-20T12:54:36.853Z,37.37
2022-08-20T13:00:28.043Z,36.28
2022-08-20T13:05:57.837Z,36.22
2022-08-20T13:11:23.316Z,36.35
2022-08-20T13:16:45.780Z,36.68
2022-08-20T13:22:10.584Z,36.51
2022-08-20T13:27:33.286Z,36.81
2022-08-20T13:32:56.269Z,37.63
2022-08-20T13:38:18.522Z,38.38
2022-08-20T13:43:40.966Z,38.04
2022-08-20T13:49:03.192Z,39.06
2022-08-20T13:54:30.194Z,39.59
2022-08-20T13:59:55.839Z,39.42
2022-08-20T14:05:19.165Z,39.58
2022-08-20T14:10:42.839Z,39.71
2022-08-20T14:16:05.155Z,40.14
2022-08-20T14:21:46.309Z,39.66
2022-08-20T14:27:09.186Z,38.73
2022-08-20T14:32:31.149Z,39.07
2022-08-20T14:37:59.676Z,39.82
2022-08-20T14:43:22.865Z,40.33
2022-08-20T14:48:45.266Z,41.00
2022-08-20T14:54:15.613Z,41.75
2022-08-20T14:59:38.013Z,42.37
2022-08-20T15:05:04.637Z,42.99
2022-08-20T15:10:32.966Z,43.65
2022-08-20T15:15:55.537Z,44.16
2022-08-20T15:21:21.475Z,44.68
2022-08-20T15:26:43.676Z,45.64
2022-08-20T15:32:06.215Z,46.15
2022-08-20T15:37:28.645Z,46.85
2022-08-20T15:42:51.464Z,47.32
2022-08-20T15:48:17.695Z,48.17
2022-08-20T15:54:01.026Z,48.75
2022-08-20T15:59:40.972Z,49.22
2022-08-20T16:05:27.684Z,49.59
2022-08-20T16:11:20.503Z,50.36
2022-08-20T16:17:01.529Z,51.53
2022-08-20T16:22:25.551Z,51.58
2022-08-20T16:28:20.552Z,52.30
2022-08-20T16:33:54.395Z,53.39
2022-08-20T16:39:27.604Z,54.79
2022-08-20T16:44:53.600Z,54.88
2022-08-20T16:50:27.731Z,54.65
2022-08-20T16:55:50.120Z,54.96
2022-08-20T17:01:15.269Z,55.68
2022-08-20T17:06:47.124Z,55.96
2022-08-20T17:12:15.985Z,56.31
2022-08-20T17:17:38.393Z,57.03
2022-08-20T17:23:18.376Z,57.42
2022-08-20T17:28:50.398Z,57.94
2022-08-20T17:34:21.494Z,58.40
2022-08-20T17:40:12.124Z,58.74
2022-08-20T17:45:47.832Z,58.97
2022-08-20T17:51:21.446Z,59.32
2022-08-20T17:56:44.860Z,59.89
2022-08-20T18:02:08.737Z,60.07
2022-08-20T18:07:38.446Z,60.80
2022-08-20T18:13:09.479Z,60.88
2022-08-20T18:18:55.048Z,61.04
2022-08-20T18:24:47.564Z,61.56
2022-08-20T18:30:22.849Z,62.07
2022-08-20T18:35:46.456Z,62.30
2022-08-20T18:41:14.254Z,62.46
2022-08-20T18:46:38.535Z,63.00
2022-08-20T18:52:23.953Z,63.35
2022-08-20T18:57:58.923Z,63.43
2022-08-20T19:03:32.015Z,63.91
2022-08-20T19:09:31.871Z,64.20
2022-08-20T19:15:15.027Z,64.53
2022-08-20T19:20:49.885Z,64.87
2022-08-20T19:26:25.635Z,65.18
2022-08-20T19:31:48.983Z,65.35
2022-08-20T19:37:44.411Z,65.33
2022-08-20T19:49:52.714Z,66.18
2022-08-20T19:55:32.257Z,66.45
2022-08-20T20:01:03.335Z,66.90
2022-08-20T20:06:27.634Z,67.38
2022-08-20T20:12:04.165Z,67.50
2022-08-20T20:17:32.184Z,67.81
2022-08-20T20:23:01.928Z,68.55
2022-08-20T20:28:42.734Z,68.65
2022-08-20T20:34:10.654Z,69.05
2022-08-20T20:39:45.909Z,69.23
2022-08-20T20:45:19.904Z,69.92
2022-08-20T20:50:42.895Z,70.10
2022-08-20T20:56:05.504Z,70.34
2022-08-20T21:01:46.134Z,70.49
2022-08-20T21:19:33.295Z,72.35
2022-08-20T21:25:05.307Z,73.09
2022-08-20T21:30:31.334Z,73.61
2022-08-20T21:35:58.028Z,73.72
2022-08-20T21:41:29.968Z,74.12
2022-08-20T21:46:54.464Z,74.43
2022-08-20T21:58:00.895Z,76.75
2022-08-20T22:03:41.835Z,77.15
2022-08-20T22:09:04.296Z,77.91
2022-08-20T22:14:26.364Z,78.78
2022-08-20T22:19:51.013Z,78.96
2022-08-20T22:25:13.286Z,79.59
2022-08-20T22:30:38.306Z,80.38
2022-08-20T22:36:04.065Z,81.12
2022-08-20T22:41:26.465Z,81.63
2022-08-20T22:46:51.600Z,82.12
2022-08-20T22:52:17.765Z,82.87
2022-08-20T22:57:40.184Z,83.21
2022-08-20T23:03:03.826Z,84.44
2022-08-20T23:08:25.914Z,84.92
2022-08-20T23:13:52.234Z,85.52
2022-08-20T23:19:22.013Z,86.97
2022-08-20T23:24:44.043Z,87.36
2022-08-20T23:30:09.563Z,87.81
2022-08-20T23:35:32.909Z,89.14
2022-08-20T23:40:55.444Z,89.97
2022-08-20T23:46:18.951Z,90.42
2022-08-20T23:51:41.603Z,91.52
2022-08-20T23:57:08.256Z,91.24
